Ivoryton, Connecticut
Current Conditions -  °F | °C
As of 7:15 AM on Sunday 23 Nov 2014 (Local Time) from KSNC Reporting Station
Scattered Clouds Scattered Clouds  
Wind Chill: 39°   Ceiling: Unl
Heat Index: 43°   Visibility: 10mi
Dew Point: 30°   Wind: 7mph
Humidity: 61%   Direction: 230°SW
Pressure: 30.16"   Gusts: NA
Location:  41.35°N, 72.44°W
Report Text: KSNC 231215Z AUTO 23006KT 10SM SCT065 06/M01 A3016 RMK AO2
Loading
Personal Weather Stations






























Interactive Weather Map New forecast layout! Learn more

10-Day Weather Forecast

Advertisements
Track Severe Weather on mobile